createdAt,value
2022-09-13T00:00:10.307Z,97.34
2022-09-13T00:01:10.346Z,97.45
2022-09-13T00:02:10.319Z,97.55
2022-09-13T00:03:10.277Z,97.45
2022-09-13T00:04:10.275Z,97.34
2022-09-13T00:05:10.282Z,97.05
2022-09-13T00:06:10.236Z,97.05
2022-09-13T00:07:10.252Z,97.14
2022-09-13T00:08:10.216Z,97.14
2022-09-13T00:09:10.209Z,96.94
2022-09-13T00:10:10.262Z,96.13
2022-09-13T00:11:10.196Z,96.44
2022-09-13T00:12:10.177Z,96.74
2022-09-13T00:13:10.187Z,96.84
2022-09-13T00:14:10.149Z,96.74
2022-09-13T00:15:10.148Z,96.64
2022-09-13T00:16:10.185Z,96.74
2022-09-13T00:17:10.121Z,96.94
2022-09-13T00:18:10.127Z,97.05
2022-09-13T00:19:10.100Z,96.94
2022-09-13T00:20:10.089Z,96.64
2022-09-13T00:21:10.079Z,96.13
2022-09-13T00:22:10.089Z,96.13
2022-09-13T00:23:10.061Z,96.19
2022-09-13T00:24:10.055Z,96.39
2022-09-13T00:25:10.040Z,96.39
2022-09-13T00:26:10.021Z,95.89
2022-09-13T00:27:10.040Z,95.58
2022-09-13T00:28:10.002Z,95.38
2022-09-13T00:29:10.002Z,95.68
2022-09-13T00:30:09.976Z,95.28
2022-09-13T00:31:09.974Z,95.38
2022-09-13T00:32:09.981Z,95.48
2022-09-13T00:33:09.949Z,95.14
2022-09-13T00:34:09.932Z,94.83
2022-09-13T00:35:09.929Z,94.93
2022-09-13T00:36:09.913Z,94.53
2022-09-13T00:37:09.929Z,94.53
2022-09-13T00:38:09.902Z,94.43
2022-09-13T00:39:09.884Z,94.02
2022-09-13T00:40:09.903Z,94.12
2022-09-13T00:41:09.862Z,93.62
2022-09-13T00:42:09.873Z,94.12
2022-09-13T00:43:09.864Z,94.32
2022-09-13T00:44:09.825Z,94.28
2022-09-13T00:45:09.826Z,94.08
2022-09-13T00:46:09.872Z,93.77
2022-09-13T00:47:09.794Z,92.97
2022-09-13T00:48:09.804Z,93.48
2022-09-13T00:49:09.774Z,93.68
2022-09-13T00:50:09.763Z,93.98
2022-09-13T00:51:09.749Z,93.48
2022-09-13T00:52:09.736Z,93.57
2022-09-13T00:53:09.734Z,92.26
2022-09-13T00:54:09.737Z,92.77
2022-09-13T00:55:09.704Z,93.07
2022-09-13T00:56:09.697Z,93.07
2022-09-13T00:57:09.687Z,92.97
2022-09-13T00:58:09.695Z,93.37
2022-09-13T00:59:09.731Z,93.27
2022-09-13T01:00:09.648Z,93.27
2022-09-13T01:01:09.654Z,93.48
2022-09-13T01:02:09.697Z,93.37
2022-09-13T01:03:09.619Z,92.86
2022-09-13T01:04:12.595Z,92.46
2022-09-13T01:05:09.605Z,92.66
2022-09-13T01:06:09.587Z,92.46
2022-09-13T01:07:09.578Z,92.77
2022-09-13T01:08:09.559Z,92.86
2022-09-13T01:09:09.579Z,92.97
2022-09-13T01:10:09.540Z,92.26
2022-09-13T01:11:09.529Z,91.55
2022-09-13T01:12:09.518Z,91.21
2022-09-13T01:13:09.509Z,91.21
2022-09-13T01:14:09.519Z,91.71
2022-09-13T01:15:09.494Z,91.41
2022-09-13T01:16:09.482Z,91.11
2022-09-13T01:17:09.460Z,91.01
2022-09-13T01:18:09.453Z,90.70
2022-09-13T01:19:09.440Z,91.31
2022-09-13T01:20:09.460Z,90.50
2022-09-13T01:21:09.420Z,90.81
2022-09-13T01:22:09.418Z,91.01
2022-09-13T01:23:09.400Z,90.61
2022-09-13T01:24:09.390Z,90.20
2022-09-13T01:25:09.409Z,90.41
2022-09-13T01:26:09.363Z,89.90
2022-09-13T01:27:09.361Z,89.39
2022-09-13T01:28:09.342Z,89.90
2022-09-13T01:29:09.336Z,89.90
2022-09-13T01:30:09.344Z,90.20
2022-09-13T01:31:09.312Z,90.50
2022-09-13T01:32:09.362Z,90.20
2022-09-13T01:33:09.294Z,90.70
2022-09-13T01:34:09.274Z,90.70
2022-09-13T01:35:09.271Z,91.31
2022-09-13T01:36:09.274Z,91.31
2022-09-13T01:37:09.244Z,91.61
2022-09-13T01:38:09.264Z,92.22
2022-09-13T01:39:09.223Z,92.02
2022-09-13T01:40:09.278Z,92.32
2022-09-13T01:41:09.203Z,92.72
2022-09-13T01:42:09.212Z,92.82
2022-09-13T01:43:09.205Z,93.43
2022-09-13T01:44:09.164Z,93.93
2022-09-13T01:45:09.156Z,94.34
2022-09-13T01:46:09.169Z,94.44
2022-09-13T01:47:09.157Z,94.44
2022-09-13T01:48:09.128Z,94.54
2022-09-13T01:49:09.116Z,94.34
2022-09-13T01:50:09.105Z,94.18
2022-09-13T01:51:09.087Z,93.98
2022-09-13T01:52:09.095Z,94.59
2022-09-13T01:53:09.076Z,94.79
2022-09-13T01:54:09.057Z,94.68
2022-09-13T01:55:09.051Z,94.89
2022-09-13T01:56:09.036Z,95.19
2022-09-13T01:57:09.058Z,95.29
2022-09-13T01:58:09.018Z,95.49
2022-09-13T01:59:09.017Z,95.49
2022-09-13T02:00:08.987Z,95.39
2022-09-13T02:01:09.047Z,95.49
2022-09-13T02:02:09.036Z,95.59
2022-09-13T02:03:08.986Z,95.39
2022-09-13T02:04:08.948Z,95.39
2022-09-13T02:05:08.939Z,95.49
2022-09-13T02:06:08.930Z,95.39
2022-09-13T02:07:08.920Z,95.29
2022-09-13T02:08:08.901Z,95.39
2022-09-13T02:09:08.918Z,95.39
2022-09-13T02:10:08.889Z,95.39
2022-09-13T02:11:08.880Z,95.49
2022-09-13T02:12:08.881Z,95.49
2022-09-13T02:13:08.851Z,95.39
2022-09-13T02:14:08.841Z,95.49
2022-09-13T02:15:08.831Z,95.29
2022-09-13T02:16:08.864Z,94.89
2022-09-13T02:17:08.811Z,94.68
2022-09-13T02:18:08.821Z,94.79
2022-09-13T02:19:08.811Z,94.79
2022-09-13T02:20:08.772Z,95.19
2022-09-13T02:21:08.762Z,95.19
2022-09-13T02:22:08.752Z,94.68
2022-09-13T02:23:08.770Z,93.77
2022-09-13T02:24:08.725Z,94.38
2022-09-13T02:25:08.722Z,95.19
2022-09-13T02:26:08.701Z,95.79
2022-09-13T02:27:08.693Z,96.40
2022-09-13T02:28:08.685Z,96.40
2022-09-13T02:29:08.701Z,96.70
2022-09-13T02:30:08.684Z,96.86
2022-09-13T02:31:08.653Z,97.01
2022-09-13T02:32:08.643Z,97.01
2022-09-13T02:33:08.639Z,96.91
2022-09-13T02:34:08.626Z,97.01
2022-09-13T02:35:08.638Z,96.91
2022-09-13T02:36:08.622Z,96.91
2022-09-13T02:37:08.594Z,96.40
2022-09-13T02:38:08.576Z,96.30
2022-09-13T02:39:08.565Z,96.20
2022-09-13T02:40:08.719Z,96.36
2022-09-13T02:41:08.539Z,95.90
2022-09-13T02:42:12.348Z,95.90
2022-09-13T02:43:08.518Z,96.60
2022-09-13T02:44:08.515Z,96.91
2022-09-13T02:45:08.523Z,97.31
2022-09-13T02:46:08.516Z,97.61
2022-09-13T02:47:08.477Z,97.61
2022-09-13T02:48:08.467Z,97.31
2022-09-13T02:49:08.468Z,97.31
2022-09-13T02:50:08.447Z,96.91
2022-09-13T02:51:08.460Z,97.31
2022-09-13T02:52:08.428Z,97.71
2022-09-13T02:53:08.409Z,97.51
2022-09-13T02:54:08.428Z,97.21
2022-09-13T02:55:08.388Z,97.61
2022-09-13T02:56:08.382Z,97.81
2022-09-13T02:57:08.369Z,97.91
2022-09-13T02:58:08.357Z,98.02
2022-09-13T02:59:08.347Z,98.07
2022-09-13T03:00:08.360Z,98.16
2022-09-13T03:01:08.345Z,98.27
2022-09-13T03:02:08.384Z,97.96
2022-09-13T03:03:08.300Z,97.96
2022-09-13T03:04:08.291Z,97.76
2022-09-13T03:05:08.300Z,96.95
2022-09-13T03:06:08.278Z,96.55
2022-09-13T03:07:08.251Z,96.75
2022-09-13T03:08:08.252Z,96.85
2022-09-13T03:09:08.232Z,96.65
2022-09-13T03:10:08.222Z,96.75
2022-09-13T03:11:08.230Z,96.55
2022-09-13T03:12:08.232Z,96.60
2022-09-13T03:13:08.205Z,96.80
2022-09-13T03:14:08.190Z,96.70
2022-09-13T03:15:08.174Z,96.91
2022-09-13T03:16:08.212Z,96.80
2022-09-13T03:17:08.179Z,97.11
2022-09-13T03:18:08.162Z,97.51
2022-09-13T03:19:08.122Z,97.61
2022-09-13T03:20:08.123Z,97.81
2022-09-13T03:21:08.123Z,97.71
2022-09-13T03:22:08.095Z,97.61
2022-09-13T03:23:08.081Z,97.31
2022-09-13T03:24:08.103Z,97.51
2022-09-13T03:25:08.057Z,97.16
2022-09-13T03:26:08.052Z,96.55
2022-09-13T03:27:08.034Z,96.65
2022-09-13T03:28:08.023Z,96.85
2022-09-13T03:29:08.021Z,97.56
2022-09-13T03:30:08.025Z,97.86
2022-09-13T03:31:07.994Z,97.76
2022-09-13T03:32:08.027Z,97.36
2022-09-13T03:33:07.994Z,96.85
2022-09-13T03:34:07.967Z,97.25
2022-09-13T03:35:07.955Z,97.51
2022-09-13T03:36:07.949Z,97.45
2022-09-13T03:37:07.957Z,97.31
2022-09-13T03:38:07.915Z,97.51
2022-09-13T03:39:10.782Z,97.51
2022-09-13T03:40:08.978Z,97.41
2022-09-13T03:41:07.888Z,97.56
2022-09-13T03:42:07.894Z,97.56
2022-09-13T03:43:07.865Z,97.45
2022-09-13T03:44:07.848Z,97.45
2022-09-13T03:45:07.838Z,97.45
2022-09-13T03:46:07.860Z,97.56
2022-09-13T03:47:07.840Z,96.95
2022-09-13T03:48:07.808Z,96.85
2022-09-13T03:49:07.798Z,97.05
2022-09-13T03:50:07.787Z,97.21
2022-09-13T03:51:07.785Z,97.71
2022-09-13T03:52:07.788Z,97.86
2022-09-13T03:53:07.758Z,97.91
2022-09-13T03:54:07.747Z,98.02
2022-09-13T03:55:07.737Z,97.45
2022-09-13T03:56:07.721Z,97.25
2022-09-13T03:57:07.740Z,96.45
2022-09-13T03:58:07.700Z,96.95
2022-09-13T03:59:07.688Z,97.96
2022-09-13T04:00:07.672Z,98.07
2022-09-13T04:01:07.708Z,98.16
2022-09-13T04:02:07.752Z,98.36
2022-09-13T04:03:07.650Z,98.57
2022-09-13T04:04:07.633Z,98.77
2022-09-13T04:05:07.627Z,98.77
2022-09-13T04:06:07.611Z,98.27
2022-09-13T04:07:07.602Z,97.96
2022-09-13T04:08:07.615Z,97.61
2022-09-13T04:09:07.581Z,97.41
2022-09-13T04:10:10.698Z,97.11
2022-09-13T04:11:08.559Z,96.70
2022-09-13T04:12:07.572Z,96.30
2022-09-13T04:13:07.533Z,96.10
2022-09-13T04:14:07.523Z,96.50
2022-09-13T04:15:07.513Z,96.80
2022-09-13T04:16:07.586Z,96.91
2022-09-13T04:17:07.523Z,96.91
2022-09-13T04:18:07.504Z,97.01
2022-09-13T04:19:07.463Z,97.01
2022-09-13T04:20:07.452Z,97.01
2022-09-13T04:21:07.456Z,96.70
2022-09-13T04:22:07.435Z,96.80
2022-09-13T04:23:07.424Z,97.21
2022-09-13T04:24:07.435Z,97.66
2022-09-13T04:25:07.407Z,97.96
2022-09-13T04:26:07.387Z,97.96
2022-09-13T04:27:07.386Z,97.86
2022-09-13T04:28:07.367Z,97.76
2022-09-13T04:29:07.356Z,97.76
2022-09-13T04:30:07.376Z,97.86
2022-09-13T04:31:07.350Z,98.07
2022-09-13T04:32:07.327Z,98.16
2022-09-13T04:33:07.337Z,98.16
2022-09-13T04:34:07.305Z,98.16
2022-09-13T04:35:07.295Z,97.96
2022-09-13T04:36:07.278Z,97.76
2022-09-13T04:37:07.275Z,97.45
2022-09-13T04:38:07.286Z,97.36
2022-09-13T04:39:07.251Z,97.66
2022-09-13T04:40:07.298Z,97.66
2022-09-13T04:41:07.227Z,97.76
2022-09-13T04:42:07.223Z,97.86
2022-09-13T04:43:07.227Z,97.86
2022-09-13T04:44:07.190Z,97.76
2022-09-13T04:45:07.187Z,97.66
2022-09-13T04:46:07.213Z,97.56
2022-09-13T04:47:07.167Z,97.41
2022-09-13T04:48:07.177Z,97.01
2022-09-13T04:49:07.139Z,96.70
2022-09-13T04:50:07.136Z,96.50
2022-09-13T04:51:07.128Z,96.30
2022-09-13T04:52:07.104Z,96.30
2022-09-13T04:53:07.130Z,96.40
2022-09-13T04:54:07.519Z,96.60
2022-09-13T04:55:07.081Z,96.66
2022-09-13T04:56:07.061Z,96.60
2022-09-13T04:57:07.050Z,96.70
2022-09-13T04:58:07.041Z,96.50
2022-09-13T04:59:07.051Z,96.60
2022-09-13T05:00:07.060Z,96.60
2022-09-13T05:01:07.089Z,96.70
2022-09-13T05:02:07.061Z,97.11
2022-09-13T05:03:06.983Z,97.21
2022-09-13T05:04:06.973Z,97.21
2022-09-13T05:05:06.971Z,97.21
2022-09-13T05:06:06.973Z,97.21
2022-09-13T05:07:06.945Z,96.91
2022-09-13T05:08:06.934Z,97.31
2022-09-13T05:09:06.921Z,97.71
2022-09-13T05:10:06.912Z,97.51
2022-09-13T05:11:06.900Z,97.71
2022-09-13T05:12:06.902Z,97.71
2022-09-13T05:13:06.882Z,97.91
2022-09-13T05:14:06.862Z,98.02
2022-09-13T05:15:06.855Z,98.22
2022-09-13T05:16:06.897Z,98.22
2022-09-13T05:17:06.863Z,98.22
2022-09-13T05:18:06.824Z,98.22
2022-09-13T05:19:06.813Z,98.22
2022-09-13T05:20:06.796Z,98.02
2022-09-13T05:21:06.800Z,97.71
2022-09-13T05:22:13.858Z,96.60
2022-09-13T05:23:06.768Z,96.50
2022-09-13T05:24:06.758Z,96.91
2022-09-13T05:25:06.748Z,96.30
2022-09-13T05:26:06.732Z,94.99
2022-09-13T05:27:06.736Z,94.38
2022-09-13T05:28:06.738Z,94.79
2022-09-13T05:29:06.722Z,95.49
2022-09-13T05:30:06.689Z,95.75
2022-09-13T05:31:06.719Z,95.65
2022-09-13T05:32:06.689Z,94.74
2022-09-13T05:33:06.666Z,94.24
2022-09-13T05:34:06.659Z,94.54
2022-09-13T05:35:06.638Z,94.34
2022-09-13T05:36:06.619Z,95.25
2022-09-13T05:37:06.640Z,95.04
2022-09-13T05:38:06.602Z,94.84
2022-09-13T05:40:11.676Z,94.64
2022-09-13T05:41:06.570Z,94.74
2022-09-13T05:42:06.615Z,95.35
2022-09-13T05:43:06.571Z,95.04
2022-09-13T05:44:12.925Z,94.13
2022-09-13T05:45:07.523Z,95.14
2022-09-13T05:46:06.533Z,95.55
2022-09-13T05:47:06.504Z,95.70
2022-09-13T05:48:06.512Z,95.81
2022-09-13T05:49:06.503Z,95.61
2022-09-13T05:50:11.820Z,95.50
2022-09-13T05:51:07.463Z,95.50
2022-09-13T05:52:06.444Z,95.30
2022-09-13T05:53:06.442Z,95.20
2022-09-13T05:54:06.452Z,95.20
2022-09-13T05:55:06.421Z,95.30
2022-09-13T05:56:06.403Z,95.00
2022-09-13T05:57:06.394Z,95.10
2022-09-13T05:58:06.383Z,94.80
2022-09-13T05:59:06.394Z,94.90
2022-09-13T06:00:06.364Z,95.10
2022-09-13T06:01:06.352Z,94.59
2022-09-13T06:02:06.432Z,94.39
2022-09-13T06:03:06.337Z,94.45
2022-09-13T06:04:06.316Z,94.85
2022-09-13T06:05:06.328Z,95.06
2022-09-13T06:06:06.315Z,95.15
2022-09-13T06:07:06.331Z,95.36
2022-09-13T06:08:06.269Z,94.85
2022-09-13T06:09:06.266Z,94.65
2022-09-13T06:10:06.245Z,94.55
2022-09-13T06:11:06.265Z,94.65
2022-09-13T06:12:06.226Z,94.85
2022-09-13T06:13:06.221Z,94.81
2022-09-13T06:14:06.206Z,93.90
2022-09-13T06:15:06.198Z,92.39
2022-09-13T06:16:06.262Z,92.79
2022-09-13T06:17:06.178Z,92.99
2022-09-13T06:18:06.159Z,93.05
2022-09-13T06:19:06.155Z,90.53
2022-09-13T06:20:06.145Z,90.94
2022-09-13T06:21:06.130Z,90.23
2022-09-13T06:22:06.140Z,91.09
2022-09-13T06:23:06.110Z,91.19
2022-09-13T06:24:06.099Z,90.29
2022-09-13T06:25:06.094Z,89.79
2022-09-13T06:26:06.078Z,89.69
2022-09-13T06:27:06.094Z,89.44
2022-09-13T06:28:06.058Z,89.34
2022-09-13T06:29:06.047Z,88.84
2022-09-13T06:30:06.032Z,89.14
2022-09-13T06:31:06.048Z,89.64
2022-09-13T06:32:06.031Z,88.84
2022-09-13T06:33:06.022Z,88.54
2022-09-13T06:34:05.991Z,89.34
2022-09-13T06:35:05.994Z,89.24
2022-09-13T06:36:05.962Z,90.34
2022-09-13T06:37:05.953Z,89.44
2022-09-13T06:38:05.963Z,88.84
2022-09-13T06:39:05.939Z,88.43
2022-09-13T06:40:05.941Z,88.34
2022-09-13T06:41:05.912Z,88.23
2022-09-13T06:42:05.901Z,88.43
2022-09-13T06:43:05.914Z,87.99
2022-09-13T06:44:05.882Z,88.09
2022-09-13T06:45:05.874Z,87.89
2022-09-13T06:46:05.899Z,86.88
2022-09-13T06:47:05.861Z,86.68
2022-09-13T06:48:05.893Z,87.19
2022-09-13T06:49:05.823Z,87.08
2022-09-13T06:50:05.815Z,87.29
2022-09-13T06:51:05.806Z,86.65
2022-09-13T06:52:05.795Z,87.15
2022-09-13T06:53:05.777Z,86.65
2022-09-13T06:54:05.796Z,86.24
2022-09-13T06:55:09.507Z,86.44
2022-09-13T06:56:06.753Z,86.34
2022-09-13T06:57:05.736Z,85.94
2022-09-13T06:58:05.727Z,86.34
2022-09-13T06:59:05.716Z,86.54
2022-09-13T07:00:05.730Z,86.34
2022-09-13T07:01:05.725Z,85.74
2022-09-13T07:02:05.713Z,85.44
2022-09-13T07:03:05.668Z,85.64
2022-09-13T07:04:05.689Z,85.94
2022-09-13T07:05:05.648Z,84.89
2022-09-13T07:06:05.645Z,85.39
2022-09-13T07:07:05.627Z,85.39
2022-09-13T07:08:05.621Z,85.50
2022-09-13T07:09:05.608Z,85.10
2022-09-13T07:10:05.621Z,86.00
2022-09-13T07:11:05.581Z,85.80
2022-09-13T07:12:05.576Z,85.75
2022-09-13T07:13:05.560Z,85.96
2022-09-13T07:14:05.551Z,85.66
2022-09-13T07:15:05.559Z,84.45
2022-09-13T07:16:05.573Z,84.85
2022-09-13T07:17:05.521Z,84.75
2022-09-13T07:18:05.510Z,84.75
2022-09-13T07:19:05.519Z,84.75
2022-09-13T07:20:05.490Z,84.95
2022-09-13T07:21:05.470Z,84.05
2022-09-13T07:22:05.468Z,84.15
2022-09-13T07:23:05.451Z,84.31
2022-09-13T07:24:05.462Z,84.51
2022-09-13T07:25:05.439Z,84.01
2022-09-13T07:26:05.424Z,84.11
2022-09-13T07:27:05.412Z,83.37
2022-09-13T07:28:05.416Z,83.27
2022-09-13T07:29:05.393Z,83.17
2022-09-13T07:30:05.409Z,83.27
2022-09-13T07:31:05.439Z,83.27
2022-09-13T07:32:05.362Z,82.97
2022-09-13T07:33:05.344Z,83.43
2022-09-13T07:34:05.337Z,82.63
2022-09-13T07:35:05.346Z,82.32
2022-09-13T07:36:05.314Z,82.82
2022-09-13T07:37:05.304Z,82.63
2022-09-13T07:38:05.296Z,83.03
2022-09-13T07:39:05.277Z,82.73
2022-09-13T07:40:05.312Z,82.03
2022-09-13T07:41:05.257Z,81.62
2022-09-13T07:42:05.253Z,81.73
2022-09-13T07:43:05.236Z,81.73
2022-09-13T07:44:05.236Z,81.62
2022-09-13T07:45:05.208Z,81.68
2022-09-13T07:46:05.294Z,81.09
2022-09-13T07:47:05.188Z,81.88
2022-09-13T07:48:05.187Z,82.03
2022-09-13T07:49:05.169Z,82.12
2022-09-13T07:50:05.159Z,82.29
2022-09-13T07:51:05.149Z,81.99
2022-09-13T07:52:05.176Z,81.88
2022-09-13T07:53:05.129Z,81.38
2022-09-13T07:54:05.118Z,81.68
2022-09-13T07:55:05.111Z,81.23
2022-09-13T07:56:05.119Z,82.03
2022-09-13T07:57:05.090Z,81.79
2022-09-13T07:58:05.071Z,82.09
2022-09-13T07:59:05.060Z,81.99
2022-09-13T08:00:05.052Z,81.99
2022-09-13T08:01:05.140Z,81.79
2022-09-13T08:02:05.137Z,82.29
2022-09-13T08:03:05.012Z,82.69
2022-09-13T08:04:05.014Z,81.88
2022-09-13T08:05:05.014Z,81.18
2022-09-13T08:06:05.010Z,81.18
2022-09-13T08:07:04.971Z,80.79
2022-09-13T08:08:04.963Z,81.48
2022-09-13T08:09:04.951Z,81.29
2022-09-13T08:10:04.946Z,81.18
2022-09-13T08:11:04.964Z,81.38
2022-09-13T08:12:04.924Z,81.38
2022-09-13T08:13:04.905Z,81.09
2022-09-13T08:14:04.905Z,81.59
2022-09-13T08:15:04.893Z,80.98
2022-09-13T08:16:04.959Z,80.88
2022-09-13T08:17:04.866Z,81.35
2022-09-13T08:18:04.876Z,81.24
2022-09-13T08:19:04.845Z,81.55
2022-09-13T08:20:06.202Z,81.30
2022-09-13T08:21:04.825Z,80.91
2022-09-13T08:22:04.834Z,80.41
2022-09-13T08:23:04.804Z,80.04
2022-09-13T08:24:04.793Z,80.85
2022-09-13T08:25:04.857Z,81.24
2022-09-13T08:26:04.768Z,81.35
2022-09-13T08:27:04.776Z,81.15
2022-09-13T08:28:04.749Z,81.35
2022-09-13T08:29:04.728Z,80.54
2022-09-13T08:30:04.728Z,80.85
2022-09-13T08:31:04.739Z,80.65
2022-09-13T08:32:04.709Z,81.35
2022-09-13T08:33:04.710Z,81.45
2022-09-13T08:34:04.681Z,82.05
2022-09-13T08:35:05.420Z,82.15
2022-09-13T08:36:04.666Z,82.05
2022-09-13T08:37:04.650Z,82.15
2022-09-13T08:38:04.641Z,81.74
2022-09-13T08:39:04.649Z,81.74
2022-09-13T08:40:04.641Z,81.21
2022-09-13T08:41:04.604Z,80.91
2022-09-13T08:42:04.592Z,80.91
2022-09-13T08:43:04.582Z,80.80
2022-09-13T08:44:04.573Z,79.91
2022-09-13T08:45:04.581Z,80.21
2022-09-13T08:46:04.605Z,80.36
2022-09-13T08:47:04.534Z,80.07
2022-09-13T08:48:04.534Z,79.86
2022-09-13T08:49:04.513Z,79.47
2022-09-13T08:50:04.535Z,79.33
2022-09-13T08:51:04.494Z,79.33
2022-09-13T08:52:05.306Z,79.09
2022-09-13T08:53:04.472Z,79.09
2022-09-13T08:54:04.713Z,78.49
2022-09-13T08:55:04.476Z,77.89
2022-09-13T08:56:04.444Z,78.09
2022-09-13T08:57:04.434Z,78.29
2022-09-13T08:58:04.416Z,78.83
2022-09-13T08:59:04.403Z,79.13
2022-09-13T09:00:04.424Z,79.73
2022-09-13T09:01:04.430Z,80.03
2022-09-13T09:02:04.376Z,79.43
2022-09-13T09:03:04.365Z,79.43
2022-09-13T09:04:04.360Z,79.53
2022-09-13T09:05:04.367Z,79.09
2022-09-13T09:06:04.335Z,79.39
2022-09-13T09:07:04.318Z,79.05
2022-09-13T09:08:04.307Z,78.42
2022-09-13T09:09:04.305Z,78.31
2022-09-13T09:10:04.307Z,78.12
2022-09-13T09:11:04.277Z,77.62
2022-09-13T09:12:04.308Z,78.05
2022-09-13T09:13:04.249Z,78.55
2022-09-13T09:14:04.249Z,78.45
2022-09-13T09:15:04.259Z,78.52
2022-09-13T09:16:04.253Z,78.12
2022-09-13T09:17:04.211Z,77.82
2022-09-13T09:18:04.200Z,77.95
2022-09-13T09:19:04.190Z,79.25
2022-09-13T09:20:04.210Z,79.61
2022-09-13T09:21:04.177Z,79.25
2022-09-13T09:22:04.183Z,79.85
2022-09-13T09:23:04.141Z,80.05
2022-09-13T09:24:04.140Z,80.05
2022-09-13T09:25:04.123Z,79.89
2022-09-13T09:26:04.113Z,80.05
2022-09-13T09:27:04.122Z,79.96
2022-09-13T09:28:04.091Z,80.15
2022-09-13T09:29:04.083Z,79.96
2022-09-13T09:30:04.073Z,79.72
2022-09-13T09:31:04.118Z,79.17
2022-09-13T09:32:04.075Z,79.44
2022-09-13T09:33:04.069Z,78.34
2022-09-13T09:34:04.025Z,78.34
2022-09-13T09:35:04.015Z,78.04
2022-09-13T09:36:04.012Z,77.84
2022-09-13T09:37:03.996Z,78.24
2022-09-13T09:38:04.007Z,78.50
2022-09-13T09:39:03.976Z,78.27
2022-09-13T09:40:03.991Z,77.43
2022-09-13T09:41:03.946Z,76.70
2022-09-13T09:42:03.937Z,76.17
2022-09-13T09:43:03.947Z,76.83
2022-09-13T09:44:03.918Z,77.43
2022-09-13T09:45:03.908Z,77.43
2022-09-13T09:46:03.943Z,77.47
2022-09-13T09:47:03.887Z,78.27
2022-09-13T09:48:03.878Z,78.07
2022-09-13T09:49:03.858Z,78.27
2022-09-13T09:50:03.918Z,78.00
2022-09-13T09:51:03.838Z,78.84
2022-09-13T09:52:03.830Z,80.18
2022-09-13T09:53:03.822Z,81.21
2022-09-13T09:54:03.811Z,80.98
2022-09-13T09:55:03.798Z,80.18
2022-09-13T09:56:03.809Z,80.47
2022-09-13T09:57:03.782Z,80.88
2022-09-13T09:58:03.762Z,80.58
2022-09-13T09:59:03.751Z,80.71
2022-09-13T10:00:03.770Z,81.12
2022-09-13T10:01:03.774Z,81.18
2022-09-13T10:02:03.770Z,81.37
2022-09-13T10:03:03.710Z,81.07
2022-09-13T10:04:03.699Z,80.74
2022-09-13T10:05:03.684Z,80.54
2022-09-13T10:06:03.700Z,79.40
2022-09-13T10:07:03.669Z,79.10
2022-09-13T10:08:03.653Z,78.90
2022-09-13T10:09:03.644Z,79.27
2022-09-13T10:10:03.635Z,79.03
2022-09-13T10:11:03.642Z,78.73
2022-09-13T10:12:03.611Z,78.09
2022-09-13T10:13:03.596Z,77.46
2022-09-13T10:14:03.594Z,76.43
2022-09-13T10:15:03.585Z,75.99
2022-09-13T10:16:03.593Z,75.93
2022-09-13T10:17:03.634Z,77.46
2022-09-13T10:18:03.547Z,76.82
2022-09-13T10:19:03.537Z,76.59
2022-09-13T10:20:03.528Z,75.99
2022-09-13T10:21:03.537Z,76.19
2022-09-13T10:22:03.508Z,75.99
2022-09-13T10:23:03.489Z,76.09
2022-09-13T10:24:03.485Z,75.67
2022-09-13T10:25:03.469Z,76.62
2022-09-13T10:26:03.460Z,75.63
2022-09-13T10:27:03.470Z,76.86
2022-09-13T10:28:03.450Z,78.09
2022-09-13T10:29:03.430Z,77.80
2022-09-13T10:30:03.421Z,77.36
2022-09-13T10:31:03.466Z,77.42
2022-09-13T10:32:03.427Z,77.16
2022-09-13T10:33:03.401Z,76.72
2022-09-13T10:34:03.381Z,76.19
2022-09-13T10:35:03.362Z,75.85
2022-09-13T10:36:03.361Z,74.76
2022-09-13T10:37:03.351Z,75.73
2022-09-13T10:38:03.364Z,76.46
2022-09-13T10:39:03.334Z,77.00
2022-09-13T10:40:03.371Z,77.83
2022-09-13T10:41:03.304Z,77.39
2022-09-13T10:42:03.314Z,78.03
2022-09-13T10:43:03.284Z,78.73
2022-09-13T10:44:07.733Z,78.19
2022-09-13T10:45:04.264Z,78.19
2022-09-13T10:46:03.271Z,77.69
2022-09-13T10:47:03.266Z,77.80
2022-09-13T10:48:03.235Z,77.89
2022-09-13T10:49:03.224Z,77.99
2022-09-13T10:50:03.215Z,78.13
2022-09-13T10:51:03.378Z,78.53
2022-09-13T10:52:03.198Z,78.03
2022-09-13T10:53:03.206Z,78.53
2022-09-13T10:54:03.176Z,78.53
2022-09-13T10:55:03.169Z,78.53
2022-09-13T10:56:03.157Z,78.13
2022-09-13T10:57:03.140Z,78.67
2022-09-13T10:58:03.293Z,78.86
2022-09-13T10:59:03.120Z,79.10
2022-09-13T11:00:03.110Z,79.66
2022-09-13T11:01:03.178Z,79.76
2022-09-13T11:02:03.089Z,80.16
2022-09-13T11:03:03.109Z,79.57
2022-09-13T11:04:03.094Z,79.57
2022-09-13T11:05:03.052Z,79.76
2022-09-13T11:06:03.050Z,80.36
2022-09-13T11:07:03.048Z,80.70
2022-09-13T11:08:03.022Z,80.70
2022-09-13T11:09:03.040Z,81.04
2022-09-13T11:10:03.012Z,81.67
2022-09-13T11:11:02.993Z,82.41
2022-09-13T11:12:02.981Z,83.21
2022-09-13T11:13:02.985Z,82.81
2022-09-13T11:14:02.982Z,82.67
2022-09-13T11:15:02.954Z,82.61
2022-09-13T11:16:02.942Z,82.91
2022-09-13T11:17:02.948Z,83.11
2022-09-13T11:18:02.922Z,83.51
2022-09-13T11:19:02.916Z,83.51
2022-09-13T11:20:02.930Z,83.71
2022-09-13T11:21:02.893Z,83.71
2022-09-13T11:22:02.876Z,83.75
2022-09-13T11:23:10.660Z,84.35
2022-09-13T11:24:02.862Z,84.95
2022-09-13T11:25:02.850Z,84.45
2022-09-13T11:26:02.863Z,84.55
2022-09-13T11:27:02.828Z,84.49
2022-09-13T11:28:02.811Z,84.79
2022-09-13T11:29:02.808Z,84.59
2022-09-13T11:30:02.818Z,84.79
2022-09-13T11:31:02.780Z,85.49
2022-09-13T11:32:02.811Z,85.59
2022-09-13T11:33:02.773Z,84.89
2022-09-13T11:34:02.759Z,85.19
2022-09-13T11:35:02.765Z,85.29
2022-09-13T11:36:02.721Z,85.79
2022-09-13T11:37:02.720Z,86.29
2022-09-13T11:38:02.704Z,85.79
2022-09-13T11:39:02.694Z,85.99
2022-09-13T11:40:02.804Z,85.65
2022-09-13T11:41:02.682Z,85.25
2022-09-13T11:42:02.660Z,85.35
2022-09-13T11:43:02.653Z,85.41
2022-09-13T11:44:02.635Z,84.75
2022-09-13T11:45:02.625Z,84.61
2022-09-13T11:46:02.725Z,84.35
2022-09-13T11:47:02.605Z,83.95
2022-09-13T11:48:02.602Z,84.11
2022-09-13T11:49:02.585Z,83.51
2022-09-13T11:50:02.575Z,83.81
2022-09-13T11:51:02.586Z,84.85
2022-09-13T11:52:02.547Z,84.95
2022-09-13T11:53:02.548Z,84.91
2022-09-13T11:54:02.526Z,84.35
2022-09-13T11:55:02.518Z,84.05
2022-09-13T11:56:02.507Z,84.25
2022-09-13T11:57:02.529Z,83.61
2022-09-13T11:58:02.491Z,83.31
2022-09-13T11:59:02.478Z,83.67
2022-09-13T12:00:02.458Z,83.47
2022-09-13T12:01:02.477Z,82.73
2022-09-13T12:02:02.539Z,82.73
2022-09-13T12:03:02.535Z,82.03
2022-09-13T12:04:02.422Z,81.63
2022-09-13T12:05:21.488Z,82.53
2022-09-13T12:06:03.439Z,83.13
2022-09-13T12:07:02.391Z,83.53
2022-09-13T12:08:02.405Z,83.07
2022-09-13T12:09:02.372Z,82.97
2022-09-13T12:10:02.354Z,82.77
2022-09-13T12:11:02.348Z,82.87
2022-09-13T12:12:02.353Z,82.87
2022-09-13T12:13:02.331Z,82.87
2022-09-13T12:14:02.311Z,82.87
2022-09-13T12:15:02.305Z,82.77
2022-09-13T12:16:02.285Z,82.67
2022-09-13T12:17:02.371Z,83.17
2022-09-13T12:18:02.265Z,83.37
2022-09-13T12:19:02.262Z,83.07
2022-09-13T12:20:02.255Z,83.47
2022-09-13T12:21:02.275Z,83.27
2022-09-13T12:22:02.245Z,83.43
2022-09-13T12:23:02.213Z,82.03
2022-09-13T12:24:02.204Z,81.63
2022-09-13T12:25:02.192Z,81.63
2022-09-13T12:26:02.178Z,81.43
2022-09-13T12:27:02.195Z,81.30
2022-09-13T12:28:02.155Z,80.76
2022-09-13T12:29:02.155Z,80.02
2022-09-13T12:30:02.137Z,79.79
2022-09-13T12:31:02.129Z,78.99
2022-09-13T12:32:02.184Z,78.85
2022-09-13T12:33:02.117Z,78.42
2022-09-13T12:34:02.098Z,77.66
2022-09-13T12:35:02.087Z,77.72
2022-09-13T12:36:02.071Z,76.53
2022-09-13T12:37:02.096Z,76.09
2022-09-13T12:38:02.048Z,75.99
2022-09-13T12:39:02.046Z,75.56
2022-09-13T12:40:02.089Z,74.90
2022-09-13T12:41:02.028Z,75.40
2022-09-13T12:42:02.032Z,75.79
2022-09-13T12:43:02.000Z,75.33
2022-09-13T12:44:01.998Z,75.37
2022-09-13T12:45:01.979Z,76.66
2022-09-13T12:46:02.049Z,76.56
2022-09-13T12:47:01.980Z,77.06
2022-09-13T12:48:01.941Z,76.50
2022-09-13T12:49:01.933Z,76.79
2022-09-13T12:51:02.918Z,76.56
2022-09-13T12:52:01.921Z,76.39
2022-09-13T12:53:01.899Z,75.65
2022-09-13T12:54:01.881Z,74.86